KDNV/DNV METAR and TAF weather

Enter ICAO airport designator
Station Type Date Time Source
KDNV METAR 2019/10/15 08:35 UTC NOAA

KDNV 150835Z AUTO 13003KT 10SM CLR 06/03 A3000 RMK AO2 T00550033


Station Type Date Time Source
KDNV Decoded METAR 2019/10/15 08:35 UTC NOAA

Danville, Vermilion County Airport, IL, United States (KDNV) 40-11-58N 087-35-44W
Oct 15, 2019 - 04:35 AM EDT / 2019.10.15 0835 UTC
Wind: from the SE (130 degrees) at 3 MPH (3 KT):0
Visibility: 10 mile(s):0
Sky conditions: clear
Temperature: 41.9 F (5.5 C)
Dew Point: 37.9 F (3.3 C)
Relative Humidity: 85%
Pressure (altimeter): 30 in. Hg (1015 hPa)
ob: KDNV 150835Z AUTO 13003KT 10SM CLR 06/03 A3000 RMK AO2 T00550033
cycle: 8

Station Type Date Time Source
KDNV TAF UTC NOAA

Error!

Example: see airport list